Time;durP1;ratioP1;P1;durP2;ratioP2;P2;SDS_P1;SDS_P2;PMS_P1;PMS_P2;Temp;Humidity;BMP_temperature;BMP_pressure;BME280_temperature;BME280_humidity;BME280_pressure;Samples;Min_cycle;Max_cycle;Signal;HPM_P1;HPM_P2
2021/11/08 00:02:05;;;;;;;67.47;24.05;;;;;;;8.51;100.00;101192.73;1554379;92;21074;-91
2021/11/08 00:04:33;;;;;;;70.35;23.50;;;;;;;8.53;100.00;101197.35;1554734;92;21590;-91
2021/11/08 00:07:00;;;;;;;61.75;23.47;;;;;;;8.52;100.00;101194.35;1554564;92;21527;-91
2021/11/08 00:09:26;;;;;;;63.50;22.58;;;;;;;8.52;100.00;101194.35;1554436;92;21058;-91
2021/11/08 00:11:52;;;;;;;61.60;21.57;;;;;;;8.53;100.00;101196.02;1551314;92;21067;-90
2021/11/08 00:14:21;;;;;;;63.10;21.12;;;;;;;8.54;100.00;101196.82;1554692;92;21047;-90
2021/11/08 00:17:02;;;;;;;57.00;21.93;;;;;;;8.50;100.00;101194.28;1630295;86;20956;-90
2021/11/08 00:22:05;;;;;;;58.33;21.42;;;;;;;8.54;100.00;101178.02;1654062;86;21098;-91
2021/11/08 00:24:32;;;;;;;67.95;22.87;;;;;;;8.53;100.00;101171.83;1654433;86;20975;-90
2021/11/08 00:27:01;;;;;;;62.30;21.77;;;;;;;8.55;100.00;101158.97;1654030;86;21550;-90
2021/11/08 00:29:27;;;;;;;62.48;22.50;;;;;;;8.55;100.00;101163.00;1666497;85;21137;-90
2021/11/08 00:31:53;;;;;;;59.60;22.40;;;;;;;8.54;100.00;101156.00;1650896;85;20884;-90
2021/11/08 00:34:18;;;;;;;71.42;22.98;;;;;;;8.55;100.00;101151.44;1671074;84;20928;-90
2021/11/08 00:36:44;;;;;;;72.17;23.30;;;;;;;8.48;100.00;101147.53;1670884;85;21583;-90
2021/11/08 00:39:11;;;;;;;63.52;22.98;;;;;;;8.55;100.00;101144.72;1671021;84;21039;-89
2021/11/08 00:41:37;;;;;;;64.00;22.48;;;;;;;8.56;100.00;101129.73;1670849;85;21089;-89
2021/11/08 00:44:03;;;;;;;67.37;23.50;;;;;;;8.59;100.00;101134.63;1671129;85;21063;-90
2021/11/08 00:46:29;;;;;;;71.90;24.77;;;;;;;8.57;100.00;101125.98;1671040;84;21012;-90
2021/11/08 00:48:55;;;;;;;71.65;25.25;;;;;;;8.57;100.00;101123.83;1671239;85;20909;-90
2021/11/08 00:51:22;;;;;;;74.25;24.75;;;;;;;8.60;100.00;101136.80;1671460;84;20999;-90
2021/11/08 00:53:50;;;;;;;65.85;23.92;;;;;;;8.61;100.00;101132.52;1670903;85;21853;-89
2021/11/08 00:56:18;;;;;;;68.28;25.17;;;;;;;8.61;100.00;101120.95;1670539;84;21562;-90
2021/11/08 00:58:45;;;;;;;81.15;27.58;;;;;;;8.62;100.00;101114.02;1671057;84;21122;-89
2021/11/08 01:01:19;;;;;;;76.17;26.97;;;;;;;8.60;100.00;101120.14;1671359;84;21047;-89
2021/11/08 01:03:44;;;;;;;74.95;26.65;;;;;;;8.65;100.00;101114.08;1668576;85;21094;-89
2021/11/08 01:06:11;;;;;;;74.62;26.65;;;;;;;8.63;100.00;101098.18;1670789;85;21186;-90
2021/11/08 01:08:38;;;;;;;84.35;27.98;;;;;;;8.66;100.00;101102.27;1670597;84;21001;-90
2021/11/08 01:11:04;;;;;;;80.90;27.27;;;;;;;8.67;100.00;101103.89;1670824;85;21050;-89
2021/11/08 01:13:30;;;;;;;77.67;27.02;;;;;;;8.67;100.00;101095.02;1670978;84;21062;-89
2021/11/08 01:15:57;;;;;;;80.85;28.20;;;;;;;8.69;100.00;101095.62;1671002;84;21086;-89
2021/11/08 01:18:26;;;;;;;76.22;25.85;;;;;;;8.69;100.00;101095.09;1670801;84;21488;-89
2021/11/08 01:20:52;;;;;;;78.62;26.90;;;;;;;8.72;100.00;101100.52;1670797;84;20980;-89
2021/11/08 01:23:27;;;;;;;75.72;26.40;;;;;;;8.71;100.00;101104.27;1670902;85;21590;-89
2021/11/08 01:26:08;;;;;;;73.62;26.80;;;;;;;8.70;100.00;101099.92;1670849;84;21154;-89
2021/11/08 01:28:39;;;;;;;72.00;24.63;;;;;;;8.68;100.00;101096.65;1670527;84;21062;-89
2021/11/08 01:31:07;;;;;;;68.25;25.02;;;;;;;8.73;100.00;101092.73;1670782;85;21412;-89
2021/11/08 01:33:35;;;;;;;62.25;24.67;;;;;;;8.77;100.00;101092.58;1671021;84;21160;-89
2021/11/08 01:38:42;;;;;;;66.37;24.67;;;;;;;8.79;100.00;101085.08;1670970;84;21453;-89
2021/11/08 01:41:06;;;;;;;70.78;24.32;;;;;;;8.82;100.00;101079.23;1667486;84;21067;-88
2021/11/08 01:43:33;;;;;;;62.25;24.20;;;;;;;8.85;100.00;101074.73;1670975;84;21086;-88
2021/11/08 01:46:00;;;;;;;66.72;24.47;;;;;;;8.84;100.00;101065.04;1670667;85;20919;-88
2021/11/08 01:48:28;;;;;;;70.45;25.95;;;;;;;8.87;100.00;101062.69;1670824;84;21008;-88
2021/11/08 01:50:54;;;;;;;70.52;25.48;;;;;;;8.89;100.00;101062.47;1671200;84;21563;-88
2021/11/08 01:53:23;;;;;;;64.05;25.40;;;;;;;8.91;100.00;101068.41;1671177;84;21176;-88
2021/11/08 01:55:49;;;;;;;63.48;23.67;;;;;;;8.92;100.00;101063.34;1670728;85;21087;-88
2021/11/08 01:58:19;;;;;;;71.22;25.45;;;;;;;8.91;100.00;101060.34;1671054;84;21031;-88
2021/11/08 02:00:46;;;;;;;69.22;26.33;;;;;;;8.92;100.00;101049.89;1671054;85;21602;-88
2021/11/08 02:03:12;;;;;;;62.78;23.95;;;;;;;8.95;100.00;101053.45;1671061;84;21082;-87
2021/11/08 02:05:38;;;;;;;66.35;23.55;;;;;;;8.92;100.00;101039.68;1671061;84;20944;-88
2021/11/08 02:08:04;;;;;;;71.22;26.45;;;;;;;8.95;100.00;101054.80;1669981;85;21161;-88
2021/11/08 02:10:30;;;;;;;61.83;24.07;;;;;;;8.94;100.00;101047.80;1671163;85;20976;-88
2021/11/08 02:12:57;;;;;;;74.05;24.85;;;;;;;8.92;100.00;101031.62;1671017;85;20935;-87
2021/11/08 02:15:23;;;;;;;60.92;25.08;;;;;;;8.96;100.00;101033.57;1670699;85;21139;-88
2021/11/08 02:17:49;;;;;;;64.40;24.27;;;;;;;8.97;100.00;101035.23;1670647;85;21212;-87
2021/11/08 02:20:27;;;;;;;67.22;25.77;;;;;;;8.99;100.00;101026.91;1670928;85;21874;-87
2021/11/08 02:22:57;;;;;;;64.85;24.40;;;;;;;9.02;100.00;101031.80;1646992;86;21029;-87
2021/11/08 02:25:27;;;;;;;72.30;26.40;;;;;;;9.01;100.00;101026.15;1646880;86;21220;-87
2021/11/08 02:27:54;;;;;;;69.82;25.52;;;;;;;9.02;100.00;101029.92;1623680;87;21581;-87
2021/11/08 02:30:26;;;;;;;69.22;26.65;;;;;;;9.03;100.00;101022.17;1656781;85;21095;-88
2021/11/08 02:32:52;;;;;;;64.95;24.37;;;;;;;9.07;100.00;101030.57;1658642;86;21127;-87
2021/11/08 02:35:19;;;;;;;62.50;24.45;;;;;;;9.09;100.00;101025.25;1658420;86;21082;-87
2021/11/08 02:37:46;;;;;;;63.75;26.02;;;;;;;9.08;100.00;101016.06;1655116;85;21713;-88
2021/11/08 02:40:20;;;;;;;64.25;24.27;;;;;;;9.09;100.00;101016.37;1658714;86;21536;-88
2021/11/08 02:42:50;;;;;;;68.35;25.43;;;;;;;9.13;100.00;101009.98;1658417;85;21116;-87
2021/11/08 02:45:24;;;;;;;64.82;25.25;;;;;;;9.13;100.00;101003.26;1636147;86;21564;-87
2021/11/08 02:47:52;;;;;;;67.30;24.27;;;;;;;9.20;100.00;101007.41;1658434;86;20961;-88
2021/11/08 02:50:21;;;;;;;61.68;24.10;;;;;;;9.18;100.00;101008.74;1659044;86;21036;-87
2021/11/08 02:52:50;;;;;;;69.92;25.37;;;;;;;9.17;100.00;101015.16;1659501;86;21043;-87
2021/11/08 02:55:18;;;;;;;63.38;24.18;;;;;;;9.19;100.00;101001.77;1658713;85;21552;-88
2021/11/08 02:57:47;;;;;;;64.50;24.63;;;;;;;9.20;100.00;101011.98;1658249;85;21212;-88
2021/11/08 03:00:15;;;;;;;71.33;25.70;;;;;;;9.21;100.00;101009.07;1658963;85;21012;-88
2021/11/08 03:02:42;;;;;;;69.55;25.82;;;;;;;9.23;100.00;101009.63;1658386;85;21099;-88
2021/11/08 03:05:15;;;;;;;70.87;26.42;;;;;;;9.22;100.00;101012.03;1658511;86;20989;-88
2021/11/08 03:07:41;;;;;;;73.35;26.33;;;;;;;9.25;100.00;101005.36;1658350;85;21107;-88
2021/11/08 03:10:16;;;;;;;74.40;27.05;;;;;;;9.22;100.00;101002.63;1606166;89;21967;-88
2021/11/08 03:12:45;;;;;;;80.67;30.00;;;;;;;9.22;100.00;101009.34;1567202;90;21115;-88
2021/11/08 03:15:14;;;;;;;76.67;28.32;;;;;;;9.23;100.00;100995.38;1542451;92;21111;-88
2021/11/08 03:17:43;;;;;;;74.60;28.52;;;;;;;9.26;100.00;100997.58;1542826;93;21091;-88
2021/11/08 03:20:15;;;;;;;80.38;27.45;;;;;;;9.25;100.00;100990.04;1542390;92;21404;-88
2021/11/08 03:22:49;;;;;;;80.50;27.65;;;;;;;9.27;100.00;100986.59;1542631;93;21159;-88
2021/11/08 03:27:51;;;;;;;75.97;28.90;;;;;;;9.31;100.00;100985.04;1493719;94;21143;-87
2021/11/08 03:30:18;;;;;;;77.35;28.57;;;;;;;9.30;100.00;100974.54;1485553;94;21763;-88
2021/11/08 03:32:48;;;;;;;76.42;28.23;;;;;;;9.29;100.00;100976.92;1481990;94;21704;-88
2021/11/08 03:35:16;;;;;;;72.08;26.90;;;;;;;9.28;100.00;100992.78;1471606;97;21147;-89
2021/11/08 03:37:43;;;;;;;80.12;29.15;;;;;;;9.29;100.00;100994.41;1479102;96;21789;-88
2021/11/08 03:40:24;;;;;;;71.97;28.60;;;;;;;9.28;100.00;100986.06;1478703;96;22446;-89
2021/11/08 03:42:54;;;;;;;81.72;29.72;;;;;;;9.28;100.00;100979.33;1478924;95;21273;-89
2021/11/08 03:45:20;;;;;;;76.70;27.35;;;;;;;9.30;100.00;100986.11;1478749;96;21140;-88
2021/11/08 03:47:47;;;;;;;78.70;28.90;;;;;;;9.29;100.00;100987.67;1479106;96;21156;-89
2021/11/08 03:50:13;;;;;;;86.65;30.48;;;;;;;9.28;100.00;100977.45;1478732;96;21148;-89
2021/11/08 03:52:40;;;;;;;81.70;28.47;;;;;;;9.31;100.00;100976.97;1478969;95;21094;-88
2021/11/08 03:55:09;;;;;;;88.47;29.25;;;;;;;9.31;100.00;100977.50;1478987;96;21136;-89
2021/11/08 03:57:35;;;;;;;84.35;30.43;;;;;;;9.33;100.00;100976.20;1478583;96;21097;-89
2021/11/08 04:00:05;;;;;;;83.67;30.45;;;;;;;9.33;100.00;100983.47;1479154;95;21925;-90
2021/11/08 04:02:31;;;;;;;85.05;28.75;;;;;;;9.35;100.00;100977.83;1429124;99;21126;-90
2021/11/08 04:04:59;;;;;;;87.05;29.98;;;;;;;9.38;100.00;100978.16;1428962;100;21483;-91
2021/11/08 04:07:26;;;;;;;87.10;32.20;;;;;;;9.37;100.00;100983.26;1428955;100;21095;-91
2021/11/08 04:09:53;;;;;;;85.75;30.68;;;;;;;9.40;100.00;100987.34;1431734;99;21678;-90
2021/11/08 04:12:19;;;;;;;75.52;27.95;;;;;;;9.41;100.00;100983.59;1434051;99;21338;-91
2021/11/08 04:14:46;;;;;;;84.28;28.95;;;;;;;9.42;100.00;100983.89;1433973;100;21113;-90
2021/11/08 04:17:14;;;;;;;78.42;27.58;;;;;;;9.44;100.00;100983.09;1434078;99;21076;-92
2021/11/08 04:19:41;;;;;;;80.95;28.70;;;;;;;9.48;100.00;100993.68;1434109;100;21153;-92
2021/11/08 04:22:08;;;;;;;76.87;28.15;;;;;;;9.48;100.00;100995.02;1434125;99;21072;-91
2021/11/08 04:24:34;;;;;;;77.75;27.20;;;;;;;9.50;100.00;100994.23;1469081;94;21194;-91
2021/11/08 04:27:02;;;;;;;71.02;25.70;;;;;;;9.50;100.00;100991.04;1502310;94;21096;-91
2021/11/08 04:29:30;;;;;;;79.07;27.60;;;;;;;9.52;100.00;100988.09;1500550;94;22589;-91
2021/11/08 04:31:57;;;;;;;77.58;27.25;;;;;;;9.56;100.00;100973.11;1525127;89;21106;-90
2021/11/08 04:34:27;;;;;;;72.97;27.98;;;;;;;9.59;100.00;100969.93;1571756;89;21039;-91
2021/11/08 04:42:29;;;;;;;72.27;27.02;;;;;;;9.66;100.00;100973.80;1572277;89;21154;-90
2021/11/08 04:45:18;;;;;;;68.17;26.35;;;;;;;9.68;100.00;100978.42;1569849;89;21094;-90
2021/11/08 04:50:33;;;;;;;73.83;27.10;;;;;;;9.73;100.00;100979.29;1571819;90;21150;-90
2021/11/08 04:58:34;;;;;;;80.32;29.27;;;;;;;9.78;100.00;100973.19;1571607;90;21090;-90
2021/11/08 05:30:25;;;;;;;82.62;28.10;;;;;;;10.12;100.00;100964.55;1593969;87;20987;-91
2021/11/08 05:32:52;;;;;;;78.90;27.95;;;;;;;10.17;100.00;100963.80;1597934;88;21114;-92
2021/11/08 05:35:20;;;;;;;78.92;27.90;;;;;;;10.20;100.00;100974.88;1598159;88;21532;-91
2021/11/08 05:37:46;;;;;;;75.15;27.90;;;;;;;10.24;100.00;100980.61;1594623;88;21094;-92
2021/11/08 05:40:19;;;;;;;79.65;27.02;;;;;;;10.26;100.00;100981.70;1597800;88;21097;-91
2021/11/08 05:42:45;;;;;;;77.00;27.00;;;;;;;10.29;100.00;100976.66;1598198;88;21079;-91
2021/11/08 05:45:15;;;;;;;70.92;26.52;;;;;;;10.35;100.00;100977.03;1608070;88;20908;-92
2021/11/08 05:47:42;;;;;;;67.90;25.65;;;;;;;10.36;100.00;100975.16;1624813;86;21504;-93
2021/11/08 05:50:11;;;;;;;68.42;25.72;;;;;;;10.40;100.00;100974.39;1624812;87;21059;-92
2021/11/08 05:52:38;;;;;;;70.97;24.85;;;;;;;10.43;100.00;100967.16;1624807;87;21559;-92
2021/11/08 05:55:05;;;;;;;70.45;25.25;;;;;;;10.48;100.00;100968.30;1624758;88;21827;-92
2021/11/08 05:57:50;;;;;;;65.78;24.80;;;;;;;10.52;100.00;100959.45;1624480;88;21594;-92
2021/11/08 06:50:04;;;;;;;36.83;14.15;;;;;;;11.37;100.00;100919.36;1592827;89;21180;-91
2021/11/08 06:52:31;;;;;;;30.45;12.65;;;;;;;11.42;100.00;100914.56;1593789;89;21070;-91
2021/11/08 06:55:05;;;;;;;31.57;12.45;;;;;;;11.46;100.00;100920.52;1592411;90;21144;-92
2021/11/08 06:57:32;;;;;;;34.60;13.00;;;;;;;11.52;100.00;100926.77;1591862;90;21092;-92
2021/11/08 06:59:59;;;;;;;32.30;12.95;;;;;;;11.57;100.00;100925.47;1593397;89;21042;-94
2021/11/08 07:02:25;;;;;;;32.03;13.38;;;;;;;11.63;100.00;100924.98;1598489;89;21581;-91
2021/11/08 07:04:55;;;;;;;32.53;13.88;;;;;;;11.67;100.00;100918.78;1596857;89;21126;-92
2021/11/08 07:07:22;;;;;;;32.75;13.53;;;;;;;11.72;100.00;100909.38;1592592;89;21102;-91
2021/11/08 07:09:48;;;;;;;35.98;14.07;;;;;;;11.77;100.00;100910.77;1592149;90;21066;-92
2021/11/08 07:12:14;;;;;;;30.05;13.53;;;;;;;11.78;100.00;100904.28;1592463;90;21026;-94
2021/11/08 07:14:41;;;;;;;36.70;14.53;;;;;;;11.84;100.00;100917.28;1573044;90;21090;-94
2021/11/08 07:17:07;;;;;;;42.15;15.35;;;;;;;11.87;100.00;100914.64;1605440;87;21139;-93
2021/11/08 07:19:34;;;;;;;37.88;15.93;;;;;;;11.90;100.00;100914.92;1603089;88;21119;-93
2021/11/08 07:22:00;;;;;;;43.60;16.07;;;;;;;11.96;100.00;100911.72;1606823;89;21153;-91
2021/11/08 07:24:26;;;;;;;44.27;16.65;;;;;;;11.99;100.00;100920.11;1638999;85;20928;-91
2021/11/08 07:26:52;;;;;;;48.45;18.55;;;;;;;11.99;100.00;100924.70;1664319;85;22032;-91
2021/11/08 07:29:25;;;;;;;43.78;18.62;;;;;;;12.01;100.00;100936.88;1671732;85;20900;-91
2021/11/08 07:31:52;;;;;;;50.48;20.17;;;;;;;12.04;100.00;100938.25;1676820;85;21054;-92
2021/11/08 07:34:22;;;;;;;57.10;21.82;;;;;;;12.08;100.00;100935.83;1676253;85;21034;-93
2021/11/08 07:36:48;;;;;;;58.10;23.05;;;;;;;12.10;100.00;100938.55;1673772;84;21067;-92
2021/11/08 07:39:14;;;;;;;62.08;24.85;;;;;;;12.10;100.00;100931.80;1684854;84;21673;-93
2021/11/08 07:41:41;;;;;;;71.25;26.77;;;;;;;12.13;100.00;100928.57;1666314;84;21030;-92
2021/11/08 07:44:07;;;;;;;72.75;26.00;;;;;;;12.15;100.00;100933.73;1641516;87;21073;-91
2021/11/08 07:46:33;;;;;;;66.55;26.15;;;;;;;12.16;100.00;100941.56;1646545;86;21575;-90
2021/11/08 07:48:59;;;;;;;81.47;30.62;;;;;;;12.18;100.00;100950.77;1668309;85;21097;-91
2021/11/08 07:51:28;;;;;;;77.08;30.12;;;;;;;12.18;100.00;100944.02;1674803;84;21093;-90
2021/11/08 07:53:54;;;;;;;78.42;29.67;;;;;;;12.20;100.00;100935.89;1672329;84;21094;-91
2021/11/08 07:56:20;;;;;;;82.57;29.52;;;;;;;12.21;100.00;100929.44;1676839;85;21070;-91
2021/11/08 07:58:48;;;;;;;76.17;29.90;;;;;;;12.23;100.00;100935.91;1676945;85;21523;-91
2021/11/08 08:01:14;;;;;;;85.92;30.80;;;;;;;12.22;100.00;100936.45;1676079;85;21619;-91
2021/11/08 08:03:40;;;;;;;78.05;28.85;;;;;;;12.23;100.00;100926.45;1677194;85;21357;-91
2021/11/08 08:06:07;;;;;;;73.70;26.50;;;;;;;12.30;100.00;100932.99;1677822;85;21050;-92
2021/11/08 08:08:35;;;;;;;69.45;24.30;;;;;;;12.34;100.00;100934.08;1677611;85;21078;-91
2021/11/08 08:11:06;;;;;;;69.17;24.20;;;;;;;12.33;100.00;100937.88;1673455;84;21642;-90
2021/11/08 08:13:37;;;;;;;57.08;21.77;;;;;;;12.36;100.00;100942.20;1680090;84;21065;-92
2021/11/08 08:16:08;;;;;;;51.23;19.98;;;;;;;12.38;100.00;100937.88;1671852;85;21126;-91
2021/11/08 08:18:40;;;;;;;52.30;20.35;;;;;;;12.36;100.00;100935.45;1677140;84;21027;-91
2021/11/08 08:21:07;;;;;;;49.67;18.50;;;;;;;12.39;100.00;100939.52;1677117;85;21031;-93
2021/11/08 08:23:33;;;;;;;47.27;17.35;;;;;;;12.40;100.00;100928.97;1642340;84;21079;-93
2021/11/08 08:26:00;;;;;;;43.33;15.98;;;;;;;12.40;100.00;100928.43;1675581;85;21058;-93
2021/11/08 08:28:26;;;;;;;39.67;16.62;;;;;;;12.42;100.00;100930.34;1677981;85;21438;-91
2021/11/08 08:30:54;;;;;;;40.88;15.80;;;;;;;12.44;100.00;100922.79;1674049;85;21002;-90
2021/11/08 08:33:21;;;;;;;39.95;16.27;;;;;;;12.48;100.00;100919.83;1633158;85;21082;-90
2021/11/08 08:35:47;;;;;;;38.20;14.50;;;;;;;12.51;100.00;100918.48;1672532;85;21032;-88
2021/11/08 08:38:20;;;;;;;46.08;15.72;;;;;;;12.53;100.00;100925.80;1650082;85;22707;-89
2021/11/08 08:40:49;;;;;;;43.73;16.65;;;;;;;12.55;100.00;100923.62;1637890;87;21927;-91
2021/11/08 08:43:19;;;;;;;38.98;15.35;;;;;;;12.62;100.00;100926.11;1563649;90;21622;-89
2021/11/08 08:45:46;;;;;;;37.53;14.45;;;;;;;12.65;100.00;100925.03;1563033;91;21077;-88
2021/11/08 08:48:14;;;;;;;39.78;15.63;;;;;;;12.67;100.00;100923.39;1563303;90;21574;-90
2021/11/08 08:50:43;;;;;;;38.25;15.32;;;;;;;12.67;100.00;100930.96;1563281;91;21784;-91
2021/11/08 08:53:10;;;;;;;35.68;15.10;;;;;;;12.70;100.00;100925.02;1573923;89;21987;-91
2021/11/08 08:55:42;;;;;;;35.17;14.83;;;;;;;12.73;100.00;100915.06;1588994;88;21136;-93
2021/11/08 08:58:08;;;;;;;43.75;15.05;;;;;;;12.75;100.00;100916.67;1592298;87;21623;-91
2021/11/08 09:00:38;;;;;;;32.40;13.68;;;;;;;12.78;100.00;100908.83;1591859;88;21186;-91
2021/11/08 09:03:06;;;;;;;42.17;15.23;;;;;;;12.78;100.00;100911.53;1589061;87;21134;-90
2021/11/08 09:05:33;;;;;;;35.78;15.18;;;;;;;12.81;100.00;100904.78;1590003;88;21088;-93
2021/11/08 09:07:59;;;;;;;39.55;15.23;;;;;;;12.87;100.00;100905.88;1589152;88;21125;-91
2021/11/08 09:10:29;;;;;;;39.08;15.53;;;;;;;12.89;100.00;100895.61;1589575;89;21057;-92
2021/11/08 09:12:57;;;;;;;34.78;14.58;;;;;;;12.92;100.00;100893.72;1589092;88;21100;-92
2021/11/08 09:15:25;;;;;;;36.98;15.28;;;;;;;12.94;100.00;100891.56;1582526;88;21068;-92
2021/11/08 09:17:52;;;;;;;35.05;14.87;;;;;;;12.98;100.00;100888.33;1584747;89;21123;-96
2021/11/08 09:20:19;;;;;;;36.15;15.43;;;;;;;13.04;100.00;100891.31;1590837;89;21103;-93
2021/11/08 09:22:49;;;;;;;41.13;15.88;;;;;;;13.05;100.00;100896.44;1589257;89;21128;-90
2021/11/08 09:25:16;;;;;;;42.88;14.25;;;;;;;13.06;100.00;100898.08;1589572;89;21177;-91
2021/11/08 09:27:45;;;;;;;39.03;15.05;;;;;;;13.09;100.00;100900.79;1589073;88;21101;-91
2021/11/08 09:30:14;;;;;;;35.25;15.20;;;;;;;13.09;100.00;100896.19;1567107;89;21176;-95
2021/11/08 09:32:42;;;;;;;43.00;16.52;;;;;;;13.12;100.00;100906.47;1587909;88;21538;-92
2021/11/08 09:35:09;;;;;;;39.73;15.93;;;;;;;13.13;100.00;100908.08;1587668;89;21525;-90
2021/11/08 09:37:43;;;;;;;39.25;15.85;;;;;;;13.13;100.00;100907.28;1587810;89;21011;-91
2021/11/08 09:40:06;;;;;;;37.33;15.40;;;;;;;13.09;100.00;100898.89;1611832;87;21066;-91
2021/11/08 09:42:33;;;;;;;40.28;15.88;;;;;;;13.13;100.00;100899.16;1643569;87;21146;-92
2021/11/08 09:45:02;;;;;;;44.50;16.15;;;;;;;13.19;100.00;100884.00;1645887;87;21122;-92
2021/11/08 09:47:29;;;;;;;40.85;15.85;;;;;;;13.22;100.00;100877.24;1645925;87;21175;-94
2021/11/08 09:50:01;;;;;;;37.70;16.35;;;;;;;13.25;100.00;100877.25;1647170;86;21079;-95
2021/11/08 09:52:28;;;;;;;39.58;16.45;;;;;;;13.31;100.00;100864.81;1646139;87;21063;-96
2021/11/08 09:54:59;;;;;;;41.68;15.88;;;;;;;13.37;100.00;100878.62;1646738;87;21156;-95
2021/11/08 09:57:26;;;;;;;42.70;16.67;;;;;;;13.40;100.00;100878.63;1624645;87;21043;-96
2021/11/08 09:59:53;;;;;;;39.23;15.95;;;;;;;13.44;100.00;100880.23;1646835;87;21578;-96
2021/11/08 10:02:19;;;;;;;37.20;16.97;;;;;;;13.44;100.00;100891.88;1670405;85;21027;-96
2021/11/08 10:04:48;;;;;;;35.05;15.58;;;;;;;13.43;100.00;100896.22;1672028;85;21000;-96
2021/11/08 10:07:17;;;;;;;38.33;15.95;;;;;;;13.39;100.00;100887.84;1653534;85;21148;-96
2021/11/08 10:09:43;;;;;;;43.13;17.87;;;;;;;13.38;100.00;100876.20;1672241;85;21647;-96
2021/11/08 10:12:12;;;;;;;41.40;16.90;;;;;;;13.38;100.00;100880.78;1674827;85;21343;-96
2021/11/08 10:14:41;;;;;;;42.35;16.95;;;;;;;13.38;100.00;100883.48;1651781;85;21593;-96
2021/11/08 10:17:07;;;;;;;42.10;16.70;;;;;;;13.38;100.00;100882.97;1672001;85;21050;-96
2021/11/08 10:19:35;;;;;;;39.38;17.20;;;;;;;13.39;100.00;100884.58;1671881;85;21160;-95
2021/11/08 10:22:04;;;;;;;41.68;17.17;;;;;;;13.42;100.00;100883.78;1674631;85;21460;-95
2021/11/08 10:24:35;;;;;;;39.70;16.87;;;;;;;13.47;100.00;100874.28;1671709;85;21047;-90
2021/11/08 10:27:06;;;;;;;43.60;17.52;;;;;;;13.51;100.00;100880.25;1670940;85;21087;-90
2021/11/08 10:29:32;;;;;;;38.55;16.07;;;;;;;13.55;100.00;100877.80;1566270;89;21098;-90
2021/11/08 10:32:04;;;;;;;36.23;14.63;;;;;;;13.58;100.00;100861.81;1565689;89;21378;-91
2021/11/08 10:34:31;;;;;;;36.23;15.40;;;;;;;13.60;100.00;100871.84;1585807;88;21693;-92
2021/11/08 10:37:05;;;;;;;44.55;16.48;;;;;;;13.59;100.00;100877.54;1585815;89;21112;-90
2021/11/08 10:39:37;;;;;;;35.92;14.18;;;;;;;13.60;100.00;100875.09;1548745;92;21020;-90
2021/11/08 10:42:06;;;;;;;33.42;15.25;;;;;;;13.55;100.00;100887.27;1552770;92;22869;-91
2021/11/08 10:44:35;;;;;;;37.15;13.98;;;;;;;13.51;100.00;100888.91;1551399;92;21091;-89
2021/11/08 10:47:09;;;;;;;33.45;14.63;;;;;;;13.51;100.00;100872.13;1540433;93;21119;-89
2021/11/08 10:49:39;;;;;;;34.05;13.40;;;;;;;13.51;100.00;100875.38;1506624;95;21163;-90
2021/11/08 10:52:06;;;;;;;32.70;13.45;;;;;;;13.49;100.00;100865.35;1500285;94;21133;-90
2021/11/08 10:54:37;;;;;;;35.08;13.53;;;;;;;13.47;100.00;100868.34;1485148;94;21109;-91
2021/11/08 10:57:20;;;;;;;31.70;12.90;;;;;;;13.47;100.00;100862.94;1500813;94;21280;-92
2021/11/08 10:59:50;;;;;;;29.42;12.35;;;;;;;13.51;100.00;100867.25;1506335;94;21621;-92
2021/11/08 11:02:21;;;;;;;30.68;12.43;;;;;;;13.53;100.00;100879.44;1500444;94;21232;-90
2021/11/08 11:04:57;;;;;;;30.45;12.07;;;;;;;13.55;100.00;100885.92;1489925;95;21207;-91
2021/11/08 11:07:34;;;;;;;35.43;12.88;;;;;;;13.54;100.00;100875.64;1499587;94;21131;-91
2021/11/08 11:10:11;;;;;;;30.70;13.60;;;;;;;13.52;100.00;100887.27;1501968;94;21582;-92
2021/11/08 11:12:48;;;;;;;37.95;14.38;;;;;;;13.49;100.00;100884.30;1509801;93;21099;-91
2021/11/08 11:15:20;;;;;;;33.90;13.95;;;;;;;13.47;100.00;100875.12;1509797;93;22052;-91
2021/11/08 11:17:58;;;;;;;35.10;14.87;;;;;;;13.47;100.00;100876.98;1470591;95;21165;-90
2021/11/08 11:20:30;;;;;;;30.90;14.00;;;;;;;13.47;100.00;100875.63;1469264;96;21163;-91
2021/11/08 11:23:10;;;;;;;40.88;16.48;;;;;;;13.48;100.00;100865.09;1471171;96;22036;-91
2021/11/08 11:25:39;;;;;;;41.40;17.02;;;;;;;13.52;100.00;100877.80;1470554;95;21137;-91
2021/11/08 11:28:07;;;;;;;48.00;19.07;;;;;;;13.51;100.00;100882.14;1466024;97;21124;-93
2021/11/08 11:30:37;;;;;;;56.95;22.50;;;;;;;13.48;100.00;100879.44;1466149;97;21260;-91
2021/11/08 11:33:14;;;;;;;61.18;23.75;;;;;;;13.48;100.00;100888.11;1462874;97;21168;-93
2021/11/08 11:35:51;;;;;;;70.37;26.70;;;;;;;13.49;100.00;100895.13;1475480;94;21244;-90
2021/11/08 11:38:25;;;;;;;69.70;26.48;;;;;;;13.47;100.00;100876.98;1475704;96;21123;-90
2021/11/08 11:41:06;;;;;;;72.60;27.98;;;;;;;13.47;100.00;100873.77;1480620;96;21640;-93
2021/11/08 11:43:37;;;;;;;75.67;28.50;;;;;;;13.47;100.00;100874.28;1480629;96;21530;-94
2021/11/08 11:46:07;;;;;;;78.50;29.05;;;;;;;13.45;100.00;100888.10;1455581;98;21144;-91
2021/11/08 11:48:36;;;;;;;73.83;28.25;;;;;;;13.42;100.00;100895.41;1457315;96;22116;-91
2021/11/08 11:51:06;;;;;;;78.85;29.85;;;;;;;13.44;100.00;100878.88;1438050;98;21131;-91
2021/11/08 11:53:34;;;;;;;84.28;29.23;;;;;;;13.46;100.00;100895.13;1422204;99;21693;-91
2021/11/08 11:56:00;;;;;;;82.15;28.50;;;;;;;13.48;100.00;100894.33;1478512;96;21108;-93
2021/11/08 11:58:27;;;;;;;79.60;29.25;;;;;;;13.47;100.00;100904.90;1486058;96;21185;-91
2021/11/08 12:00:58;;;;;;;75.28;28.52;;;;;;;13.50;100.00;100897.59;1484086;95;21256;-90
2021/11/08 12:03:24;;;;;;;84.42;29.90;;;;;;;13.51;100.00;100899.20;1480143;95;21313;-92
2021/11/08 12:05:55;;;;;;;80.55;28.02;;;;;;;13.54;100.00;100900.01;1482222;95;21152;-91
2021/11/08 12:08:25;;;;;;;82.40;28.52;;;;;;;13.55;100.00;100899.46;1482808;95;21191;-93
2021/11/08 12:10:52;;;;;;;77.72;28.70;;;;;;;13.54;100.00;100904.62;1482385;96;21675;-93
2021/11/08 12:13:21;;;;;;;75.05;27.90;;;;;;;13.64;100.00;100910.81;1482365;95;21622;-91
2021/11/08 12:15:50;;;;;;;74.22;27.48;;;;;;;13.71;100.00;100909.75;1510953;91;21103;-88
2021/11/08 12:18:19;;;;;;;75.42;26.75;;;;;;;13.76;100.00;100915.95;1515632;93;21500;-91
2021/11/08 12:20:55;;;;;;;68.80;26.35;;;;;;;13.81;100.00;100916.50;1517185;93;21124;-90
2021/11/08 12:23:31;;;;;;;76.20;26.55;;;;;;;13.86;100.00;100925.98;1514270;94;21650;-96
2021/11/08 12:25:59;;;;;;;62.67;25.65;;;;;;;13.84;100.00;100917.30;1525538;94;21129;-91
2021/11/08 12:28:29;;;;;;;73.78;25.77;;;;;;;13.82;100.00;100901.86;1525315;94;21050;-93
2021/11/08 12:30:59;;;;;;;63.95;24.10;;;;;;;13.83;100.00;100904.86;1525169;94;20995;-91
2021/11/08 12:33:41;;;;;;;60.30;24.98;;;;;;;13.82;100.00;100905.92;1519453;93;21138;-93
2021/11/08 12:36:15;;;;;;;70.42;26.45;;;;;;;13.80;100.00;100913.53;1517148;94;21541;-90
2021/11/08 12:38:59;;;;;;;77.82;26.42;;;;;;;13.81;100.00;100907.02;1519038;94;21203;-90
2021/11/08 12:41:33;;;;;;;66.42;25.30;;;;;;;13.81;100.00;100924.08;1518917;94;21063;-92
2021/11/08 12:44:07;;;;;;;64.90;24.77;;;;;;;13.81;100.00;100892.92;1540497;93;21587;-92
2021/11/08 12:46:49;;;;;;;63.00;24.20;;;;;;;13.81;100.00;100877.22;1539909;93;21171;-90
2021/11/08 12:49:29;;;;;;;68.55;24.87;;;;;;;13.77;100.00;100937.10;1520964;93;21526;-90
2021/11/08 12:51:59;;;;;;;62.35;22.52;;;;;;;13.77;100.00;100934.39;1518266;94;21717;-91
2021/11/08 12:54:29;;;;;;;67.78;24.00;;;;;;;13.74;100.00;100931.69;1520353;94;21534;-91